sensor_id;sensor_type;location;lat;lon;timestamp;pressure;altitude;pressure_sealevel;temperature;humidity
77823;BME280;67013;49.730;17.292;2023-02-12T00:00:19;99699.27;;;4.17;74.13
77823;BME280;67013;49.730;17.292;2023-02-12T00:02:49;99711.58;;;4.21;74.23
77823;BME280;67013;49.730;17.292;2023-02-12T00:05:18;99715.29;;;4.24;74.04
77823;BME280;67013;49.730;17.292;2023-02-12T00:07:48;99717.46;;;4.27;74.02
77823;BME280;67013;49.730;17.292;2023-02-12T00:10:17;99717.77;;;4.28;73.87
77823;BME280;67013;49.730;17.292;2023-02-12T00:12:47;99721.38;;;4.29;74.03
77823;BME280;67013;49.730;17.292;2023-02-12T00:15:16;99719.15;;;4.29;73.90
77823;BME280;67013;49.730;17.292;2023-02-12T00:17:46;99714.21;;;4.26;73.91
77823;BME280;67013;49.730;17.292;2023-02-12T00:20:16;99712.05;;;4.22;73.81
77823;BME280;67013;49.730;17.292;2023-02-12T00:22:45;99713.33;;;4.19;73.82
77823;BME280;67013;49.730;17.292;2023-02-12T00:25:15;99717.02;;;4.17;74.05
77823;BME280;67013;49.730;17.292;2023-02-12T00:27:45;99724.42;;;4.16;74.07
77823;BME280;67013;49.730;17.292;2023-02-12T00:30:16;99728.84;;;4.19;74.10
77823;BME280;67013;49.730;17.292;2023-02-12T00:32:46;99719.79;;;4.23;73.94
77823;BME280;67013;49.730;17.292;2023-02-12T00:35:16;99720.75;;;4.26;73.90
77823;BME280;67013;49.730;17.292;2023-02-12T00:37:45;99727.38;;;4.30;73.85
77823;BME280;67013;49.730;17.292;2023-02-12T00:40:15;99723.89;;;4.31;73.74
77823;BME280;67013;49.730;17.292;2023-02-12T00:42:44;99715.98;;;4.31;73.79
77823;BME280;67013;49.730;17.292;2023-02-12T00:45:14;99724.85;;;4.28;73.72
77823;BME280;67013;49.730;17.292;2023-02-12T00:47:44;99744.23;;;4.23;73.48
77823;BME280;67013;49.730;17.292;2023-02-12T00:50:13;99732.48;;;4.17;73.67
77823;BME280;67013;49.730;17.292;2023-02-12T00:52:43;99744.17;;;4.13;73.67
77823;BME280;67013;49.730;17.292;2023-02-12T00:55:12;99744.41;;;4.09;73.66
77823;BME280;67013;49.730;17.292;2023-02-12T00:57:41;99738.13;;;4.06;73.74
77823;BME280;67013;49.730;17.292;2023-02-12T01:00:14;99730.77;;;4.04;73.61
77823;BME280;67013;49.730;17.292;2023-02-12T01:02:44;99735.55;;;4.05;73.71
77823;BME280;67013;49.730;17.292;2023-02-12T01:05:14;99737.80;;;4.05;73.81
77823;BME280;67013;49.730;17.292;2023-02-12T01:07:43;99733.50;;;4.05;73.70
77823;BME280;67013;49.730;17.292;2023-02-12T01:10:18;99731.48;;;4.03;73.71
77823;BME280;67013;49.730;17.292;2023-02-12T01:12:49;99733.34;;;3.98;73.53
77823;BME280;67013;49.730;17.292;2023-02-12T01:15:19;99729.48;;;3.94;73.91
77823;BME280;67013;49.730;17.292;2023-02-12T01:17:49;99728.58;;;3.88;74.04
77823;BME280;67013;49.730;17.292;2023-02-12T01:20:21;99733.24;;;3.81;73.99
77823;BME280;67013;49.730;17.292;2023-02-12T01:22:51;99736.70;;;3.73;73.95
77823;BME280;67013;49.730;17.292;2023-02-12T01:25:20;99738.27;;;3.65;74.02
77823;BME280;67013;49.730;17.292;2023-02-12T01:27:53;99734.98;;;3.58;73.91
77823;BME280;67013;49.730;17.292;2023-02-12T01:30:23;99741.32;;;3.52;74.00
77823;BME280;67013;49.730;17.292;2023-02-12T01:32:52;99742.60;;;3.47;73.98
77823;BME280;67013;49.730;17.292;2023-02-12T01:35:22;99740.27;;;3.45;74.02
77823;BME280;67013;49.730;17.292;2023-02-12T01:37:52;99735.50;;;3.42;73.91
77823;BME280;67013;49.730;17.292;2023-02-12T01:40:21;99741.27;;;3.39;73.98
77823;BME280;67013;49.730;17.292;2023-02-12T01:42:51;99744.26;;;3.36;74.20
77823;BME280;67013;49.730;17.292;2023-02-12T01:45:44;99744.17;;;3.31;74.41
77823;BME280;67013;49.730;17.292;2023-02-12T01:48:16;99751.71;;;3.25;74.68
77823;BME280;67013;49.730;17.292;2023-02-12T01:50:45;99750.28;;;3.19;75.01
77823;BME280;67013;49.730;17.292;2023-02-12T01:53:17;99756.72;;;3.15;75.22
77823;BME280;67013;49.730;17.292;2023-02-12T01:55:54;99757.89;;;3.09;75.18
77823;BME280;67013;49.730;17.292;2023-02-12T01:58:25;99752.84;;;3.04;75.37
77823;BME280;67013;49.730;17.292;2023-02-12T02:00:56;99752.38;;;3.01;75.45
77823;BME280;67013;49.730;17.292;2023-02-12T02:03:27;99745.70;;;3.00;75.58
77823;BME280;67013;49.730;17.292;2023-02-12T02:06:00;99746.06;;;2.98;75.49
77823;BME280;67013;49.730;17.292;2023-02-12T02:08:31;99747.30;;;2.97;75.59
77823;BME280;67013;49.730;17.292;2023-02-12T02:11:02;99751.11;;;2.96;75.47
77823;BME280;67013;49.730;17.292;2023-02-12T02:13:53;99754.11;;;2.92;75.63
77823;BME280;67013;49.730;17.292;2023-02-12T02:16:43;99750.39;;;2.89;75.66
77823;BME280;67013;49.730;17.292;2023-02-12T02:19:23;99754.70;;;2.88;75.72
77823;BME280;67013;49.730;17.292;2023-02-12T02:22:10;99759.36;;;2.87;75.94
77823;BME280;67013;49.730;17.292;2023-02-12T02:27:51;99757.92;;;2.91;75.97
77823;BME280;67013;49.730;17.292;2023-02-12T02:30:43;99766.97;;;2.94;76.05
77823;BME280;67013;49.730;17.292;2023-02-12T02:33:24;99760.20;;;2.97;75.95
77823;BME280;67013;49.730;17.292;2023-02-12T02:36:00;99759.25;;;3.01;75.95
77823;BME280;67013;49.730;17.292;2023-02-12T02:38:36;99766.23;;;3.04;76.08
77823;BME280;67013;49.730;17.292;2023-02-12T02:41:10;99769.64;;;3.06;76.04
77823;BME280;67013;49.730;17.292;2023-02-12T02:43:47;99767.04;;;3.07;76.15
77823;BME280;67013;49.730;17.292;2023-02-12T02:46:22;99769.78;;;3.07;76.05
77823;BME280;67013;49.730;17.292;2023-02-12T02:48:55;99765.71;;;3.05;75.99
77823;BME280;67013;49.730;17.292;2023-02-12T02:51:29;99761.88;;;2.99;76.03
77823;BME280;67013;49.730;17.292;2023-02-12T02:54:04;99764.71;;;2.95;76.10
77823;BME280;67013;49.730;17.292;2023-02-12T02:56:38;99768.56;;;2.91;76.14
77823;BME280;67013;49.730;17.292;2023-02-12T02:59:12;99776.50;;;2.89;76.19
77823;BME280;67013;49.730;17.292;2023-02-12T03:01:45;99786.48;;;2.89;75.97
77823;BME280;67013;49.730;17.292;2023-02-12T03:04:20;99768.27;;;2.89;75.93
77823;BME280;67013;49.730;17.292;2023-02-12T03:06:55;99773.23;;;2.89;75.89
77823;BME280;67013;49.730;17.292;2023-02-12T03:09:30;99783.39;;;2.88;75.92
77823;BME280;67013;49.730;17.292;2023-02-12T03:12:07;99784.77;;;2.87;75.93
77823;BME280;67013;49.730;17.292;2023-02-12T03:14:41;99787.77;;;2.84;75.99
77823;BME280;67013;49.730;17.292;2023-02-12T03:17:15;99796.05;;;2.82;76.13
77823;BME280;67013;49.730;17.292;2023-02-12T03:19:49;99805.55;;;2.80;76.12
77823;BME280;67013;49.730;17.292;2023-02-12T03:22:23;99810.38;;;2.79;76.28
77823;BME280;67013;49.730;17.292;2023-02-12T03:24:59;99814.02;;;2.76;76.35
77823;BME280;67013;49.730;17.292;2023-02-12T03:27:37;99814.09;;;2.72;76.18
77823;BME280;67013;49.730;17.292;2023-02-12T03:30:11;99815.80;;;2.73;76.24
77823;BME280;67013;49.730;17.292;2023-02-12T03:32:45;99824.38;;;2.73;76.12
77823;BME280;67013;49.730;17.292;2023-02-12T03:35:22;99832.04;;;2.78;76.26
77823;BME280;67013;49.730;17.292;2023-02-12T03:37:58;99834.17;;;2.82;76.31
77823;BME280;67013;49.730;17.292;2023-02-12T03:40:35;99844.02;;;2.89;76.41
77823;BME280;67013;49.730;17.292;2023-02-12T03:43:14;99850.14;;;2.93;76.40
77823;BME280;67013;49.730;17.292;2023-02-12T03:45:51;99851.42;;;2.97;76.35
77823;BME280;67013;49.730;17.292;2023-02-12T03:48:27;99855.12;;;3.02;76.36
77823;BME280;67013;49.730;17.292;2023-02-12T03:51:02;99854.91;;;3.04;75.97
77823;BME280;67013;49.730;17.292;2023-02-12T03:53:32;99853.52;;;3.05;75.81
77823;BME280;67013;49.730;17.292;2023-02-12T03:56:06;99855.92;;;3.05;75.93
77823;BME280;67013;49.730;17.292;2023-02-12T03:58:39;99859.50;;;3.07;76.05
77823;BME280;67013;49.730;17.292;2023-02-12T04:01:11;99868.89;;;3.10;76.07
77823;BME280;67013;49.730;17.292;2023-02-12T04:03:44;99872.06;;;3.14;76.18
77823;BME280;67013;49.730;17.292;2023-02-12T04:06:22;99876.45;;;3.20;76.19
77823;BME280;67013;49.730;17.292;2023-02-12T04:08:54;99885.45;;;3.26;75.93
77823;BME280;67013;49.730;17.292;2023-02-12T04:11:32;99886.52;;;3.31;75.97
77823;BME280;67013;49.730;17.292;2023-02-12T04:14:16;99890.23;;;3.36;75.87
77823;BME280;67013;49.730;17.292;2023-02-12T04:16:53;99890.34;;;3.39;75.77
77823;BME280;67013;49.730;17.292;2023-02-12T04:19:32;99892.51;;;3.42;75.91
77823;BME280;67013;49.730;17.292;2023-02-12T04:22:13;99894.70;;;3.44;75.80
77823;BME280;67013;49.730;17.292;2023-02-12T04:24:48;99894.67;;;3.45;75.89
77823;BME280;67013;49.730;17.292;2023-02-12T04:27:24;99894.33;;;3.46;75.94
77823;BME280;67013;49.730;17.292;2023-02-12T04:29:59;99890.98;;;3.41;76.05
77823;BME280;67013;49.730;17.292;2023-02-12T04:32:35;99901.05;;;3.44;76.07
77823;BME280;67013;49.730;17.292;2023-02-12T04:35:11;99900.48;;;3.47;76.13
77823;BME280;67013;49.730;17.292;2023-02-12T04:37:46;99901.25;;;3.52;76.12
77823;BME280;67013;49.730;17.292;2023-02-12T04:40:20;99905.95;;;3.58;76.07
77823;BME280;67013;49.730;17.292;2023-02-12T04:42:51;99899.84;;;3.62;76.03
77823;BME280;67013;49.730;17.292;2023-02-12T04:45:23;99898.79;;;3.63;75.82
77823;BME280;67013;49.730;17.292;2023-02-12T04:47:54;99898.45;;;3.63;75.68
77823;BME280;67013;49.730;17.292;2023-02-12T04:50:24;99894.55;;;3.60;75.49
77823;BME280;67013;49.730;17.292;2023-02-12T04:52:54;99900.15;;;3.56;75.45
77823;BME280;67013;49.730;17.292;2023-02-12T04:55:23;99905.41;;;3.50;75.53
77823;BME280;67013;49.730;17.292;2023-02-12T04:57:52;99911.55;;;3.44;75.45
77823;BME280;67013;49.730;17.292;2023-02-12T05:00:22;99919.78;;;3.37;75.64
77823;BME280;67013;49.730;17.292;2023-02-12T05:02:52;99924.86;;;3.32;75.59
77823;BME280;67013;49.730;17.292;2023-02-12T05:05:22;99924.25;;;3.28;75.51
77823;BME280;67013;49.730;17.292;2023-02-12T05:07:51;99923.12;;;3.25;75.57
77823;BME280;67013;49.730;17.292;2023-02-12T05:10:21;99924.15;;;3.25;75.81
77823;BME280;67013;49.730;17.292;2023-02-12T05:12:51;99924.80;;;3.26;75.87
77823;BME280;67013;49.730;17.292;2023-02-12T05:15:22;99929.55;;;3.28;75.88
77823;BME280;67013;49.730;17.292;2023-02-12T05:17:51;99928.52;;;3.28;75.92
77823;BME280;67013;49.730;17.292;2023-02-12T05:20:20;99933.84;;;3.29;76.07
77823;BME280;67013;49.730;17.292;2023-02-12T05:22:53;99938.80;;;3.30;76.07
77823;BME280;67013;49.730;17.292;2023-02-12T05:25:21;99944.98;;;3.30;76.02
77823;BME280;67013;49.730;17.292;2023-02-12T05:27:50;99947.08;;;3.30;76.07
77823;BME280;67013;49.730;17.292;2023-02-12T05:30:20;99947.42;;;3.29;76.27
77823;BME280;67013;49.730;17.292;2023-02-12T05:32:49;99951.39;;;3.29;76.35
77823;BME280;67013;49.730;17.292;2023-02-12T05:35:19;99953.25;;;3.30;76.11
77823;BME280;67013;49.730;17.292;2023-02-12T05:37:48;99956.47;;;3.33;76.18
77823;BME280;67013;49.730;17.292;2023-02-12T05:40:18;99960.88;;;3.37;76.21
77823;BME280;67013;49.730;17.292;2023-02-12T05:42:48;99963.70;;;3.41;76.18
77823;BME280;67013;49.730;17.292;2023-02-12T05:45:17;99966.17;;;3.47;76.15
77823;BME280;67013;49.730;17.292;2023-02-12T05:47:47;99967.14;;;3.51;76.10
77823;BME280;67013;49.730;17.292;2023-02-12T05:50:17;99970.00;;;3.54;76.19
77823;BME280;67013;49.730;17.292;2023-02-12T05:52:46;99977.15;;;3.58;76.23
77823;BME280;67013;49.730;17.292;2023-02-12T05:55:16;99978.30;;;3.60;76.08
77823;BME280;67013;49.730;17.292;2023-02-12T05:57:45;99984.14;;;3.61;75.98
77823;BME280;67013;49.730;17.292;2023-02-12T06:00:16;99983.27;;;3.62;76.05
77823;BME280;67013;49.730;17.292;2023-02-12T06:02:46;99987.90;;;3.63;75.95
77823;BME280;67013;49.730;17.292;2023-02-12T06:05:15;99991.54;;;3.62;76.00
77823;BME280;67013;49.730;17.292;2023-02-12T06:07:45;99998.39;;;3.63;75.87
77823;BME280;67013;49.730;17.292;2023-02-12T06:10:14;100000.61;;;3.64;75.78
77823;BME280;67013;49.730;17.292;2023-02-12T06:12:44;100010.04;;;3.66;75.86
77823;BME280;67013;49.730;17.292;2023-02-12T06:15:13;100012.56;;;3.69;75.81
77823;BME280;67013;49.730;17.292;2023-02-12T06:17:43;100019.10;;;3.70;75.60
77823;BME280;67013;49.730;17.292;2023-02-12T06:20:12;100031.05;;;3.72;75.49
77823;BME280;67013;49.730;17.292;2023-02-12T06:22:42;100031.71;;;3.74;75.71
77823;BME280;67013;49.730;17.292;2023-02-12T06:25:11;100031.84;;;3.77;75.48
77823;BME280;67013;49.730;17.292;2023-02-12T06:27:41;100040.19;;;3.82;75.56
77823;BME280;67013;49.730;17.292;2023-02-12T06:30:12;100043.71;;;3.86;75.73
77823;BME280;67013;49.730;17.292;2023-02-12T06:32:42;100042.42;;;3.90;75.57
77823;BME280;67013;49.730;17.292;2023-02-12T06:35:11;100050.46;;;3.93;75.73
77823;BME280;67013;49.730;17.292;2023-02-12T06:37:41;100055.56;;;3.97;75.50
77823;BME280;67013;49.730;17.292;2023-02-12T06:40:11;100057.30;;;4.04;75.39
77823;BME280;67013;49.730;17.292;2023-02-12T06:42:40;100060.17;;;4.15;75.03
77823;BME280;67013;49.730;17.292;2023-02-12T06:45:10;100060.36;;;4.32;75.11
77823;BME280;67013;49.730;17.292;2023-02-12T06:47:40;100057.58;;;4.50;74.82
77823;BME280;67013;49.730;17.292;2023-02-12T06:50:10;100058.58;;;4.66;74.71
77823;BME280;67013;49.730;17.292;2023-02-12T06:52:39;100056.69;;;4.81;74.69
77823;BME280;67013;49.730;17.292;2023-02-12T06:55:09;100060.80;;;4.90;74.61
77823;BME280;67013;49.730;17.292;2023-02-12T06:57:38;100059.23;;;4.98;73.99
77823;BME280;67013;49.730;17.292;2023-02-12T07:00:10;100060.64;;;5.05;73.64
77823;BME280;67013;49.730;17.292;2023-02-12T07:02:40;100067.14;;;5.14;73.57
77823;BME280;67013;49.730;17.292;2023-02-12T07:05:09;100063.13;;;5.22;73.47
77823;BME280;67013;49.730;17.292;2023-02-12T07:07:39;100063.84;;;5.29;72.95
77823;BME280;67013;49.730;17.292;2023-02-12T07:10:10;100071.29;;;5.35;72.82
77823;BME280;67013;49.730;17.292;2023-02-12T07:12:40;100074.98;;;5.46;72.51
77823;BME280;67013;49.730;17.292;2023-02-12T07:15:10;100081.46;;;5.62;72.21
77823;BME280;67013;49.730;17.292;2023-02-12T07:17:39;100090.75;;;6.16;72.04
77823;BME280;67013;49.730;17.292;2023-02-12T07:20:11;100092.60;;;6.37;72.08
77823;BME280;67013;49.730;17.292;2023-02-12T07:22:40;100096.84;;;6.52;71.73
77823;BME280;67013;49.730;17.292;2023-02-12T07:25:10;100099.75;;;6.64;71.41
77823;BME280;67013;49.730;17.292;2023-02-12T07:27:40;100099.94;;;6.76;70.59
77823;BME280;67013;49.730;17.292;2023-02-12T07:30:11;100101.09;;;6.83;70.28
77823;BME280;67013;49.730;17.292;2023-02-12T07:32:40;100099.45;;;6.92;69.54
77823;BME280;67013;49.730;17.292;2023-02-12T07:35:10;100098.33;;;6.99;69.34
77823;BME280;67013;49.730;17.292;2023-02-12T07:37:40;100105.27;;;7.15;69.07
77823;BME280;67013;49.730;17.292;2023-02-12T07:40:10;100105.16;;;7.56;68.72
77823;BME280;67013;49.730;17.292;2023-02-12T07:42:40;100115.32;;;8.08;68.36
77823;BME280;67013;49.730;17.292;2023-02-12T07:45:10;100118.21;;;9.55;66.72
77823;BME280;67013;49.730;17.292;2023-02-12T07:47:39;100115.95;;;11.23;64.84
77823;BME280;67013;49.730;17.292;2023-02-12T07:50:10;100119.41;;;12.88;61.12
77823;BME280;67013;49.730;17.292;2023-02-12T07:52:39;100116.47;;;13.22;58.87
77823;BME280;67013;49.730;17.292;2023-02-12T07:55:10;100123.71;;;13.39;57.59
77823;BME280;67013;49.730;17.292;2023-02-12T07:57:39;100128.27;;;13.52;55.66
77823;BME280;67013;49.730;17.292;2023-02-12T08:00:11;100129.27;;;13.15;55.09
77823;BME280;67013;49.730;17.292;2023-02-12T08:02:40;100140.20;;;12.62;55.21
77823;BME280;67013;49.730;17.292;2023-02-12T08:05:10;100138.95;;;12.16;55.35
77823;BME280;67013;49.730;17.292;2023-02-12T08:07:39;100132.85;;;11.81;55.52
77823;BME280;67013;49.730;17.292;2023-02-12T08:10:10;100141.45;;;11.62;55.65
77823;BME280;67013;49.730;17.292;2023-02-12T08:12:39;100148.92;;;11.77;56.06
77823;BME280;67013;49.730;17.292;2023-02-12T08:15:10;100156.09;;;12.15;55.78
77823;BME280;67013;49.730;17.292;2023-02-12T08:17:39;100152.23;;;13.26;54.84
77823;BME280;67013;49.730;17.292;2023-02-12T08:20:11;100153.48;;;13.54;53.70
77823;BME280;67013;49.730;17.292;2023-02-12T08:22:41;100158.31;;;13.17;53.23
77823;BME280;67013;49.730;17.292;2023-02-12T08:25:10;100170.17;;;12.82;53.19
77823;BME280;67013;49.730;17.292;2023-02-12T08:27:42;100179.12;;;12.62;53.53
77823;BME280;67013;49.730;17.292;2023-02-12T08:30:13;100180.06;;;12.40;54.19
77823;BME280;67013;49.730;17.292;2023-02-12T08:32:43;100178.84;;;12.13;54.78
77823;BME280;67013;49.730;17.292;2023-02-12T08:35:12;100177.23;;;11.86;54.99
77823;BME280;67013;49.730;17.292;2023-02-12T08:37:42;100179.27;;;11.58;55.41
77823;BME280;67013;49.730;17.292;2023-02-12T08:40:12;100172.83;;;11.40;55.45
77823;BME280;67013;49.730;17.292;2023-02-12T08:42:42;100181.15;;;11.45;56.04
77823;BME280;67013;49.730;17.292;2023-02-12T08:45:11;100181.50;;;12.02;56.10
77823;BME280;67013;49.730;17.292;2023-02-12T08:47:41;100189.83;;;12.20;55.68
77823;BME280;67013;49.730;17.292;2023-02-12T08:50:11;100192.91;;;12.18;55.54
77823;BME280;67013;49.730;17.292;2023-02-12T08:52:40;100192.72;;;12.21;55.35
77823;BME280;67013;49.730;17.292;2023-02-12T08:55:10;100190.91;;;12.16;55.07
77823;BME280;67013;49.730;17.292;2023-02-12T08:57:40;100194.34;;;12.07;55.07
77823;BME280;67013;49.730;17.292;2023-02-12T09:00:12;100194.77;;;11.80;55.04
77823;BME280;67013;49.730;17.292;2023-02-12T09:02:41;100200.46;;;11.52;55.61
77823;BME280;67013;49.730;17.292;2023-02-12T09:05:11;100200.95;;;11.31;55.96
77823;BME280;67013;49.730;17.292;2023-02-12T09:07:40;100203.90;;;11.24;56.10
77823;BME280;67013;49.730;17.292;2023-02-12T09:10:10;100202.66;;;11.21;55.88
77823;BME280;67013;49.730;17.292;2023-02-12T09:12:41;100203.48;;;11.22;55.84
77823;BME280;67013;49.730;17.292;2023-02-12T09:15:10;100208.33;;;11.11;55.75
77823;BME280;67013;49.730;17.292;2023-02-12T09:17:40;100215.81;;;10.92;55.91
77823;BME280;67013;49.730;17.292;2023-02-12T09:20:11;100216.42;;;10.71;56.39
77823;BME280;67013;49.730;17.292;2023-02-12T09:22:41;100217.20;;;10.57;56.89
77823;BME280;67013;49.730;17.292;2023-02-12T09:25:10;100219.52;;;10.44;57.34
77823;BME280;67013;49.730;17.292;2023-02-12T09:27:40;100220.59;;;10.27;57.67
77823;BME280;67013;49.730;17.292;2023-02-12T09:30:11;100218.84;;;10.10;57.88
77823;BME280;67013;49.730;17.292;2023-02-12T09:32:41;100224.59;;;10.01;58.16
77823;BME280;67013;49.730;17.292;2023-02-12T09:35:10;100221.73;;;9.91;58.51
77823;BME280;67013;49.730;17.292;2023-02-12T09:37:40;100225.81;;;10.14;58.37
77823;BME280;67013;49.730;17.292;2023-02-12T09:42:57;100237.34;;;12.43;56.95
77823;BME280;67013;49.730;17.292;2023-02-12T09:45:34;100240.52;;;12.79;55.54
77823;BME280;67013;49.730;17.292;2023-02-12T09:48:16;100245.22;;;12.83;54.75
77823;BME280;67013;49.730;17.292;2023-02-12T09:50:53;100246.23;;;12.70;54.86
77823;BME280;67013;49.730;17.292;2023-02-12T09:53:25;100250.74;;;12.54;55.26
77823;BME280;67013;49.730;17.292;2023-02-12T09:55:57;100254.30;;;12.32;55.63
77823;BME280;67013;49.730;17.292;2023-02-12T09:58:31;100255.41;;;12.06;55.94
77823;BME280;67013;49.730;17.292;2023-02-12T10:01:10;100257.71;;;11.80;56.70
77823;BME280;67013;49.730;17.292;2023-02-12T10:03:41;100261.16;;;11.48;56.89
77823;BME280;67013;49.730;17.292;2023-02-12T10:06:15;100264.80;;;11.21;57.55
77823;BME280;67013;49.730;17.292;2023-02-12T10:08:57;100266.83;;;11.00;57.88
77823;BME280;67013;49.730;17.292;2023-02-12T10:11:39;100265.30;;;10.71;58.68
77823;BME280;67013;49.730;17.292;2023-02-12T10:14:31;100264.95;;;10.47;59.27
77823;BME280;67013;49.730;17.292;2023-02-12T10:17:10;100266.33;;;10.31;59.87
77823;BME280;67013;49.730;17.292;2023-02-12T10:20:06;100265.75;;;10.24;59.95
77823;BME280;67013;49.730;17.292;2023-02-12T10:22:45;100268.55;;;10.24;60.37
77823;BME280;67013;49.730;17.292;2023-02-12T10:25:23;100269.30;;;10.31;60.70
77823;BME280;67013;49.730;17.292;2023-02-12T10:27:56;100269.30;;;10.55;60.63
77823;BME280;67013;49.730;17.292;2023-02-12T10:30:34;100265.04;;;10.97;60.96
77823;BME280;67013;49.730;17.292;2023-02-12T10:33:14;100261.42;;;11.15;59.20
77823;BME280;67013;49.730;17.292;2023-02-12T10:35:47;100260.48;;;11.21;58.70
77823;BME280;67013;49.730;17.292;2023-02-12T10:38:22;100262.17;;;11.29;58.57
77823;BME280;67013;49.730;17.292;2023-02-12T10:40:54;100262.02;;;11.33;58.27
77823;BME280;67013;49.730;17.292;2023-02-12T10:43:25;100261.59;;;11.35;58.21
77823;BME280;67013;49.730;17.292;2023-02-12T10:45:55;100263.23;;;11.40;57.85
77823;BME280;67013;49.730;17.292;2023-02-12T10:48:26;100264.09;;;11.44;57.95
77823;BME280;67013;49.730;17.292;2023-02-12T10:51:14;100266.86;;;11.45;57.76
77823;BME280;67013;49.730;17.292;2023-02-12T10:53:48;100268.48;;;11.47;57.56
77823;BME280;67013;49.730;17.292;2023-02-12T10:56:20;100272.34;;;11.54;57.42
77823;BME280;67013;49.730;17.292;2023-02-12T10:58:55;100274.92;;;11.51;57.64
77823;BME280;67013;49.730;17.292;2023-02-12T11:01:28;100273.77;;;11.50;58.66
77823;BME280;67013;49.730;17.292;2023-02-12T11:03:57;100274.47;;;11.53;58.72
77823;BME280;67013;49.730;17.292;2023-02-12T11:06:31;100272.20;;;11.60;58.72
77823;BME280;67013;49.730;17.292;2023-02-12T11:09:00;100268.25;;;11.71;59.25
77823;BME280;67013;49.730;17.292;2023-02-12T11:11:37;100265.36;;;11.81;58.83
77823;BME280;67013;49.730;17.292;2023-02-12T11:14:15;100265.40;;;11.87;57.93
77823;BME280;67013;49.730;17.292;2023-02-12T11:16:52;100261.92;;;11.90;57.36
77823;BME280;67013;49.730;17.292;2023-02-12T11:19:24;100261.77;;;11.90;56.34
77823;BME280;67013;49.730;17.292;2023-02-12T11:22:05;100259.05;;;11.81;55.63
77823;BME280;67013;49.730;17.292;2023-02-12T11:24:36;100259.41;;;11.74;55.57
77823;BME280;67013;49.730;17.292;2023-02-12T11:27:22;100260.01;;;11.68;55.56
77823;BME280;67013;49.730;17.292;2023-02-12T11:30:13;100263.49;;;11.68;56.62
77823;BME280;67013;49.730;17.292;2023-02-12T11:32:41;100263.16;;;11.75;56.32
77823;BME280;67013;49.730;17.292;2023-02-12T11:35:15;100262.69;;;11.82;56.37
77823;BME280;67013;49.730;17.292;2023-02-12T11:37:52;100262.84;;;11.97;57.09
77823;BME280;67013;49.730;17.292;2023-02-12T11:40:25;100264.69;;;12.16;58.69
77823;BME280;67013;49.730;17.292;2023-02-12T11:42:57;100258.90;;;12.41;58.49
77823;BME280;67013;49.730;17.292;2023-02-12T11:45:32;100255.81;;;12.67;58.26
77823;BME280;67013;49.730;17.292;2023-02-12T11:48:02;100254.97;;;12.93;58.27
77823;BME280;67013;49.730;17.292;2023-02-12T11:50:47;100250.65;;;13.22;57.74
77823;BME280;67013;49.730;17.292;2023-02-12T11:53:22;100245.53;;;13.49;57.83
77823;BME280;67013;49.730;17.292;2023-02-12T11:55:58;100237.02;;;13.66;56.13
77823;BME280;67013;49.730;17.292;2023-02-12T11:58:29;100237.77;;;13.69;55.54
77823;BME280;67013;49.730;17.292;2023-02-12T12:01:10;100238.34;;;13.68;55.71
77823;BME280;67013;49.730;17.292;2023-02-12T12:03:47;100234.89;;;13.61;55.18
77823;BME280;67013;49.730;17.292;2023-02-12T12:06:28;100236.66;;;13.45;54.17
77823;BME280;67013;49.730;17.292;2023-02-12T12:09:05;100237.74;;;13.22;54.12
77823;BME280;67013;49.730;17.292;2023-02-12T12:11:49;100244.98;;;13.07;54.96
77823;BME280;67013;49.730;17.292;2023-02-12T12:14:25;100246.03;;;13.06;55.48
77823;BME280;67013;49.730;17.292;2023-02-12T12:17:01;100246.65;;;13.11;55.41
77823;BME280;67013;49.730;17.292;2023-02-12T12:20:02;100244.52;;;13.16;55.77
77823;BME280;67013;49.730;17.292;2023-02-12T12:22:48;100242.08;;;13.19;55.72
77823;BME280;67013;49.730;17.292;2023-02-12T12:25:23;100250.52;;;13.19;55.26
77823;BME280;67013;49.730;17.292;2023-02-12T12:28:10;100252.33;;;13.13;55.48
77823;BME280;67013;49.730;17.292;2023-02-12T12:30:59;100247.33;;;13.12;55.64
77823;BME280;67013;49.730;17.292;2023-02-12T12:33:38;100248.34;;;13.13;55.19
77823;BME280;67013;49.730;17.292;2023-02-12T12:36:29;100241.45;;;13.11;54.99
77823;BME280;67013;49.730;17.292;2023-02-12T12:39:05;100236.22;;;13.07;55.44
77823;BME280;67013;49.730;17.292;2023-02-12T12:41:44;100233.33;;;13.03;55.37
77823;BME280;67013;49.730;17.292;2023-02-12T12:44:26;100233.88;;;13.02;55.23
77823;BME280;67013;49.730;17.292;2023-02-12T12:47:06;100234.13;;;13.04;55.34
77823;BME280;67013;49.730;17.292;2023-02-12T12:49:56;100233.20;;;13.05;54.62
77823;BME280;67013;49.730;17.292;2023-02-12T12:52:52;100229.52;;;13.05;53.82
77823;BME280;67013;49.730;17.292;2023-02-12T12:55:45;100229.63;;;13.04;53.70
77823;BME280;67013;49.730;17.292;2023-02-12T12:58:25;100230.06;;;13.05;53.87
77823;BME280;67013;49.730;17.292;2023-02-12T13:01:24;100228.10;;;13.06;53.49
77823;BME280;67013;49.730;17.292;2023-02-12T13:04:11;100226.93;;;13.05;53.66
77823;BME280;67013;49.730;17.292;2023-02-12T13:06:56;100220.77;;;13.02;53.59
77823;BME280;67013;49.730;17.292;2023-02-12T13:09:43;100220.02;;;12.97;53.26
77823;BME280;67013;49.730;17.292;2023-02-12T13:12:51;100222.66;;;12.90;53.13
77823;BME280;67013;49.730;17.292;2023-02-12T13:15:29;100215.48;;;12.77;52.77
77823;BME280;67013;49.730;17.292;2023-02-12T13:18:11;100215.23;;;12.68;53.30
77823;BME280;67013;49.730;17.292;2023-02-12T13:20:48;100218.61;;;12.61;52.55
77823;BME280;67013;49.730;17.292;2023-02-12T13:23:25;100216.56;;;12.56;52.72
77823;BME280;67013;49.730;17.292;2023-02-12T13:26:02;100217.75;;;12.50;52.94
77823;BME280;67013;49.730;17.292;2023-02-12T13:28:35;100219.23;;;12.46;52.49